createdAt,value
2018-07-06T00:03:12.387Z,17.60
2018-07-06T00:08:27.084Z,17.60
2018-07-06T00:13:41.842Z,17.60
2018-07-06T00:18:56.389Z,17.70
2018-07-06T00:24:10.945Z,17.70
2018-07-06T00:29:25.535Z,17.70
2018-07-06T00:34:40.214Z,17.80
2018-07-06T00:39:55.005Z,17.80
2018-07-06T00:45:09.628Z,17.80
2018-07-06T00:50:24.289Z,17.70
2018-07-06T00:55:38.810Z,17.70
2018-07-06T01:00:53.452Z,17.70
2018-07-06T01:06:08.089Z,17.70
2018-07-06T01:11:22.884Z,17.60
2018-07-06T01:16:37.500Z,17.60
2018-07-06T01:21:52.544Z,17.50
2018-07-06T01:27:07.354Z,17.60
2018-07-06T01:32:22.098Z,17.60
2018-07-06T01:37:37.095Z,17.60
2018-07-06T01:42:51.767Z,17.60
2018-07-06T01:48:06.455Z,17.60
2018-07-06T01:53:21.013Z,17.60
2018-07-06T02:03:43.967Z,17.60
2018-07-06T02:08:58.671Z,17.60
2018-07-06T02:14:13.230Z,17.50
2018-07-06T02:19:28.631Z,17.50
2018-07-06T02:24:43.220Z,17.50
2018-07-06T02:29:57.897Z,17.40
2018-07-06T02:35:12.505Z,17.40
2018-07-06T02:40:27.195Z,17.40
2018-07-06T02:45:41.862Z,17.40
2018-07-06T02:50:56.638Z,17.30
2018-07-06T02:56:11.287Z,17.30
2018-07-06T03:01:25.947Z,17.30
2018-07-06T03:06:40.627Z,17.30
2018-07-06T03:11:55.682Z,17.30
2018-07-06T03:17:10.441Z,17.20
2018-07-06T03:22:25.179Z,17.20
2018-07-06T03:27:39.777Z,17.30
2018-07-06T03:32:54.504Z,17.30
2018-07-06T03:38:09.260Z,17.30
2018-07-06T03:43:23.894Z,17.30
2018-07-06T03:48:38.909Z,17.30
2018-07-06T03:59:02.796Z,17.30
2018-07-06T04:04:17.412Z,17.30
2018-07-06T04:09:32.356Z,17.40
2018-07-06T04:14:47.092Z,17.40
2018-07-06T04:20:01.796Z,17.40
2018-07-06T04:25:16.739Z,17.40
2018-07-06T04:30:31.452Z,17.40
2018-07-06T04:35:46.080Z,17.40
2018-07-06T04:41:00.759Z,17.40
2018-07-06T04:46:15.383Z,17.40
2018-07-06T04:56:38.778Z,17.40
2018-07-06T05:01:53.492Z,17.30
2018-07-06T05:07:08.075Z,17.40
2018-07-06T05:12:22.811Z,17.30
2018-07-06T05:17:37.493Z,17.30
2018-07-06T05:22:52.247Z,17.30
2018-07-06T05:28:07.052Z,17.30
2018-07-06T05:33:22.145Z,17.30
2018-07-06T05:38:36.804Z,17.20
2018-07-06T05:43:51.420Z,17.20
2018-07-06T05:49:06.034Z,17.20
2018-07-06T05:54:20.764Z,17.20
2018-07-06T05:59:35.371Z,17.10
2018-07-06T06:04:50.004Z,17.10
2018-07-06T06:09:53.303Z,17.10
2018-07-06T06:14:56.584Z,17.00
2018-07-06T06:19:59.827Z,17.10
2018-07-06T06:25:03.085Z,17.10
2018-07-06T06:30:06.360Z,17.20
2018-07-06T06:35:10.386Z,17.20
2018-07-06T06:40:13.908Z,17.10
2018-07-06T06:45:17.798Z,17.10
2018-07-06T06:50:21.088Z,17.10
2018-07-06T06:55:24.380Z,17.00
2018-07-06T07:00:28.113Z,17.10
2018-07-06T07:05:31.896Z,17.10
2018-07-06T07:10:35.400Z,17.10
2018-07-06T07:15:38.669Z,17.10
2018-07-06T07:20:42.961Z,17.20
2018-07-06T07:25:46.234Z,17.20
2018-07-06T07:30:49.500Z,17.30
2018-07-06T07:35:52.804Z,17.20
2018-07-06T07:40:56.099Z,17.30
2018-07-06T07:51:13.976Z,17.50
2018-07-06T07:56:17.270Z,17.40
2018-07-06T08:01:20.667Z,17.50
2018-07-06T08:06:23.819Z,17.50
2018-07-06T08:11:27.091Z,17.50
2018-07-06T08:16:30.363Z,17.70
2018-07-06T08:21:33.833Z,17.80
2018-07-06T08:26:37.087Z,17.90
2018-07-06T08:31:40.688Z,17.90
2018-07-06T08:42:55.319Z,18.00
2018-07-06T08:47:58.574Z,18.00
2018-07-06T08:53:01.815Z,18.10
2018-07-06T08:58:05.079Z,18.30
2018-07-06T09:03:08.332Z,18.40
2018-07-06T09:13:14.604Z,18.70
2018-07-06T09:18:17.855Z,18.70
2018-07-06T09:28:24.128Z,18.90
2018-07-06T09:33:27.376Z,19.10
2018-07-06T09:38:30.623Z,19.30
2018-07-06T09:43:33.880Z,19.70
2018-07-06T09:48:37.139Z,19.80
2018-07-06T09:53:40.408Z,19.90
2018-07-06T09:58:44.496Z,19.80
2018-07-06T10:03:47.767Z,19.60
2018-07-06T10:08:51.019Z,19.60
2018-07-06T10:13:54.478Z,19.80
2018-07-06T10:24:00.958Z,19.60
2018-07-06T10:31:20.759Z,19.50
2018-07-06T10:36:24.037Z,19.60
2018-07-06T10:41:27.286Z,19.90
2018-07-06T10:46:30.559Z,19.90
2018-07-06T10:56:36.787Z,20.30
2018-07-06T11:01:40.063Z,20.20
2018-07-06T11:06:43.364Z,20.40
2018-07-06T11:11:46.618Z,20.60
2018-07-06T11:16:49.897Z,21.00
2018-07-06T11:26:56.168Z,21.10
2018-07-06T11:31:59.484Z,21.30
2018-07-06T11:37:02.732Z,21.20
2018-07-06T11:47:08.979Z,22.60
2018-07-06T11:52:12.291Z,22.20
2018-07-06T11:57:15.576Z,22.00
2018-07-06T12:02:18.843Z,22.10
2018-07-06T12:07:22.133Z,22.20
2018-07-06T12:12:25.401Z,22.70
2018-07-06T12:32:37.671Z,23.80
2018-07-06T12:37:40.952Z,24.50
2018-07-06T12:42:44.201Z,24.90
2018-07-06T12:47:47.465Z,24.10
2018-07-06T12:52:50.751Z,23.60
2018-07-06T12:57:54.024Z,23.70
2018-07-06T13:02:57.287Z,23.30
2018-07-06T13:08:00.579Z,24.60
2018-07-06T13:13:03.916Z,25.10
2018-07-06T13:23:10.267Z,21.20
2018-07-06T13:28:13.556Z,20.80
2018-07-06T13:33:16.828Z,20.60
2018-07-06T13:38:20.083Z,20.60
2018-07-06T13:43:23.347Z,20.30
2018-07-06T13:48:26.632Z,20.30
2018-07-06T13:53:29.912Z,20.20
2018-07-06T13:58:33.175Z,20.00
2018-07-06T14:03:36.445Z,20.00
2018-07-06T14:08:39.717Z,19.90
2018-07-06T14:13:42.991Z,20.00
2018-07-06T14:18:46.353Z,20.10
2018-07-06T14:23:49.628Z,20.10
2018-07-06T14:28:52.919Z,20.10
2018-07-06T14:33:56.176Z,20.20
2018-07-06T14:38:59.450Z,20.20
2018-07-06T14:44:02.723Z,20.30
2018-07-06T14:54:09.023Z,20.00
2018-07-06T15:19:24.352Z,19.70
2018-07-06T15:29:30.622Z,20.10
2018-07-06T15:39:36.953Z,20.60
2018-07-06T15:44:40.224Z,20.40
2018-07-06T15:49:43.542Z,20.50
2018-07-06T15:59:50.834Z,20.40
2018-07-06T16:09:57.444Z,20.90
2018-07-06T16:25:06.720Z,21.10
2018-07-06T16:35:13.062Z,21.00
2018-07-06T16:40:16.315Z,20.90
2018-07-06T16:45:19.797Z,20.70
2018-07-06T16:50:23.067Z,20.60
2018-07-06T17:10:35.386Z,20.50
2018-07-06T17:35:50.951Z,20.60
2018-07-06T17:40:54.207Z,20.50
2018-07-06T18:06:09.647Z,20.00
2018-07-06T18:16:15.952Z,19.80
2018-07-06T18:31:25.407Z,19.50
2018-07-06T18:36:28.654Z,19.40
2018-07-06T18:46:35.035Z,19.40
2018-07-06T18:51:38.309Z,19.30
2018-07-06T19:01:44.612Z,19.20
2018-07-06T19:06:47.898Z,19.20
2018-07-06T19:11:51.183Z,19.20
2018-07-06T19:16:54.459Z,19.30
2018-07-06T19:21:57.788Z,19.40
2018-07-06T19:27:01.175Z,19.40
2018-07-06T19:32:04.479Z,19.40
2018-07-06T19:37:07.860Z,19.30
2018-07-06T19:42:11.143Z,19.10
2018-07-06T19:47:14.626Z,19.10
2018-07-06T19:52:17.886Z,18.90
2018-07-06T19:57:21.540Z,18.70
2018-07-06T20:02:24.812Z,18.60
2018-07-06T20:07:28.076Z,18.50
2018-07-06T20:22:37.339Z,18.40
2018-07-06T20:27:40.587Z,18.30
2018-07-06T20:32:43.860Z,18.30
2018-07-06T20:37:47.115Z,18.10
2018-07-06T20:42:54.290Z,18.00
2018-07-06T20:47:57.810Z,18.00
2018-07-06T20:58:04.233Z,18.00
2018-07-06T21:03:07.508Z,18.00
2018-07-06T21:08:10.816Z,17.80
2018-07-06T21:13:14.021Z,17.80
2018-07-06T21:18:17.497Z,17.70
2018-07-06T21:23:21.575Z,17.60
2018-07-06T21:28:25.273Z,17.60
2018-07-06T21:38:31.488Z,17.40
2018-07-06T21:43:34.744Z,17.30
2018-07-06T21:48:37.978Z,17.30
2018-07-06T21:53:41.617Z,17.20
2018-07-06T21:58:45.334Z,17.20
2018-07-06T22:03:48.986Z,17.30
2018-07-06T22:08:52.851Z,17.20
2018-07-06T22:13:56.105Z,17.20
2018-07-06T22:18:59.358Z,17.30
2018-07-06T22:24:02.639Z,17.20
2018-07-06T22:29:07.221Z,17.00
2018-07-06T22:34:10.531Z,17.00
2018-07-06T22:39:13.897Z,17.00
2018-07-06T22:44:17.860Z,16.90
2018-07-06T22:49:21.564Z,16.80
2018-07-06T22:54:25.033Z,16.70
2018-07-06T23:04:31.967Z,16.30
2018-07-06T23:09:35.228Z,16.30
2018-07-06T23:14:38.479Z,16.30
2018-07-06T23:19:42.848Z,16.30
2018-07-06T23:24:46.095Z,16.30
2018-07-06T23:29:49.683Z,16.30
2018-07-06T23:34:52.999Z,16.40
2018-07-06T23:39:56.723Z,16.20
2018-07-06T23:45:07.392Z,16.20
2018-07-06T23:50:11.411Z,16.20
2018-07-06T23:55:15.393Z,16.20
